Time;durP1;ratioP1;P1;durP2;ratioP2;P2;SDS_P1;SDS_P2;PMS_P1;PMS_P2;Temp;Humidity;BMP_temperature;BMP_pressure;BME280_temperature;BME280_humidity;BME280_pressure;Samples;Min_cycle;Max_cycle;Signal;HPM_P1;HPM_P2
2022/04/22 00:02:07;;;;;;;2.50;2.30;;;;;;;17.00;46.24;95944.19;4920656;29;20182;-92
2022/04/22 00:04:34;;;;;;;2.90;2.60;;;;;;;17.59;46.05;96055.50;4917664;29;20181;-92
2022/04/22 00:07:02;;;;;;;2.60;2.40;;;;;;;19.08;46.01;96286.63;4926292;29;20223;-93
2022/04/22 00:09:28;;;;;;;2.50;2.30;;;;;;;17.59;46.04;96069.91;4889209;29;20203;-92
2022/04/22 00:11:55;;;;;;;3.40;2.43;;;;;;;16.25;46.19;95815.63;4903778;29;20183;-93
2022/04/22 00:14:22;;;;;;;2.40;2.20;;;;;;;16.62;46.33;95871.47;4907283;29;20227;-93
2022/04/22 00:16:49;;;;;;;2.53;2.33;;;;;;;16.82;46.11;95899.78;4906799;29;20202;-92
2022/04/22 00:19:19;;;;;;;2.90;2.60;;;;;;;16.93;45.94;95936.41;4906932;29;20217;-93
2022/04/22 00:21:47;;;;;;;2.50;2.30;;;;;;;18.68;46.20;96215.44;4889659;29;20206;-92
2022/04/22 00:24:17;;;;;;;2.67;2.47;;;;;;;17.41;46.18;96011.91;4906537;29;20197;-92
2022/04/22 00:26:44;;;;;;;2.20;2.10;;;;;;;16.22;45.90;95806.31;4922007;29;20225;-92
2022/04/22 00:29:11;;;;;;;2.40;2.20;;;;;;;17.51;46.21;96005.38;4921194;29;20195;-92
2022/04/22 00:31:38;;;;;;;2.33;2.23;;;;;;;17.25;46.19;95956.56;4909963;29;20448;-91
2022/04/22 00:34:08;;;;;;;2.60;2.40;;;;;;;16.54;46.13;95844.19;4888941;29;20171;-92
2022/04/22 00:36:35;;;;;;;2.60;2.40;;;;;;;16.64;45.97;95859.66;4901467;29;20226;-93
2022/04/22 00:39:02;;;;;;;2.80;2.60;;;;;;;17.50;46.18;95996.06;4887661;29;20203;-92
2022/04/22 00:41:32;;;;;;;2.37;2.17;;;;;;;17.50;46.31;95994.34;4891781;29;20187;-93
2022/04/22 00:44:01;;;;;;;2.80;2.60;;;;;;;17.41;46.10;95981.44;4922001;29;20179;-92
2022/04/22 00:46:28;;;;;;;2.57;2.37;;;;;;;16.56;45.86;95824.81;4901694;29;20187;-92
2022/04/22 00:48:55;;;;;;;2.60;2.40;;;;;;;17.59;46.13;95993.72;4921388;29;20229;-93
2022/04/22 00:51:22;;;;;;;2.60;2.40;;;;;;;16.93;46.02;95890.75;4902812;29;20202;-92
2022/04/22 00:53:51;;;;;;;2.77;2.57;;;;;;;19.13;46.23;96249.41;4893253;29;20203;-92
2022/04/22 00:56:18;;;;;;;2.37;2.20;;;;;;;19.14;45.98;96248.56;4905968;29;20237;-92
2022/04/22 00:58:46;;;;;;;2.60;2.40;;;;;;;19.14;45.95;96246.00;4906256;29;20195;-93
2022/04/22 01:01:14;;;;;;;2.70;2.50;;;;;;;17.60;45.99;96003.91;4902899;29;20225;-92
2022/04/22 01:09:47;;;;;;;2.73;2.53;;;;;;;19.15;46.25;96240.06;4908874;29;20174;-92
2022/04/22 01:12:08;;;;;;;2.57;2.37;;;;;;;16.79;46.09;95823.63;4920154;29;20485;-92
2022/04/22 01:14:35;;;;;;;2.40;2.20;;;;;;;16.23;45.51;95751.41;4895408;29;20267;-92
2022/04/22 01:17:04;;;;;;;2.83;2.57;;;;;;;17.40;46.18;95934.03;4887258;29;20211;-92
2022/04/22 01:19:33;;;;;;;2.50;2.20;;;;;;;16.89;45.90;95859.38;4911378;29;20210;-92
2022/04/22 01:22:06;;;;;;;2.53;2.33;;;;;;;16.06;46.11;95709.66;4905686;29;20234;-92
2022/04/22 01:24:33;;;;;;;2.70;2.50;;;;;;;17.02;45.79;95848.63;4898811;29;20207;-93
2022/04/22 01:27:00;;;;;;;2.50;2.30;;;;;;;17.23;45.93;95915.06;4886947;29;20207;-92
2022/04/22 01:29:28;;;;;;;3.00;2.70;;;;;;;16.89;45.89;95828.06;4899936;29;20218;-92
2022/04/22 01:31:59;;;;;;;2.53;2.33;;;;;;;16.37;46.02;95724.66;4920593;29;20214;-92
2022/04/22 01:34:26;;;;;;;2.80;2.60;;;;;;;17.45;45.70;95898.59;4915856;29;20207;-92
2022/04/22 01:36:53;;;;;;;2.47;2.30;;;;;;;17.36;45.87;95899.25;4886746;29;20210;-92
2022/04/22 01:39:20;;;;;;;2.47;2.27;;;;;;;16.69;45.80;95764.25;4886845;29;20197;-92
2022/04/22 01:41:47;;;;;;;2.53;2.33;;;;;;;19.20;45.99;96182.47;4917509;29;20202;-92
2022/04/22 01:44:14;;;;;;;2.53;2.33;;;;;;;17.09;45.87;95825.13;4903807;29;20187;-91
2022/04/22 01:46:42;;;;;;;2.37;2.17;;;;;;;17.43;45.91;95877.38;4905094;29;20206;-92
2022/04/22 01:49:14;;;;;;;2.50;2.30;;;;;;;16.89;45.76;95782.41;4905655;29;20235;-92
2022/04/22 01:51:43;;;;;;;2.60;2.40;;;;;;;17.62;45.92;95900.63;4905116;29;20238;-91
2022/04/22 01:54:13;;;;;;;2.33;2.20;;;;;;;16.85;45.94;95760.34;4917948;29;20222;-91
2022/04/22 01:56:40;;;;;;;2.43;2.23;;;;;;;19.25;45.81;96169.00;4886460;29;20226;-92
2022/04/22 01:59:09;;;;;;;2.60;2.40;;;;;;;17.10;45.81;95801.44;4886854;29;20207;-92
2022/04/22 02:01:36;;;;;;;2.70;2.50;;;;;;;17.59;45.97;95898.03;4901385;29;20209;-92
2022/04/22 02:04:03;;;;;;;2.83;2.63;;;;;;;17.33;45.58;95850.09;4921853;29;20182;-92
2022/04/22 02:06:30;;;;;;;2.53;2.33;;;;;;;17.55;45.76;95862.38;4907165;29;20194;-92
2022/04/22 02:08:57;;;;;;;2.57;2.37;;;;;;;16.95;45.82;95760.53;4908585;29;20250;-92
2022/04/22 02:11:24;;;;;;;2.70;2.50;;;;;;;18.06;45.50;95960.75;4908645;29;20231;-92
2022/04/22 02:13:51;;;;;;;2.50;2.30;;;;;;;16.85;45.99;95742.59;4895282;29;20199;-92
2022/04/22 02:16:18;;;;;;;2.70;2.50;;;;;;;17.74;45.70;95905.94;4924155;29;20198;-92
2022/04/22 02:18:47;;;;;;;3.00;2.80;;;;;;;17.73;45.77;95891.53;4908418;29;20333;-92
2022/04/22 02:21:14;;;;;;;2.53;2.33;;;;;;;17.78;46.04;95912.81;4908923;29;20216;-92
2022/04/22 02:23:41;;;;;;;2.70;2.50;;;;;;;18.37;45.85;96005.41;4908093;29;20189;-92
2022/04/22 02:26:08;;;;;;;2.97;2.77;;;;;;;17.35;45.66;95839.13;4893912;29;20190;-93
2022/04/22 02:28:38;;;;;;;2.60;2.40;;;;;;;17.57;45.68;95856.53;4908423;29;20243;-92
2022/04/22 02:31:06;;;;;;;2.73;2.53;;;;;;;18.78;45.64;96060.41;4877369;23;20223;-86
2022/04/22 02:33:34;;;;;;;2.53;2.33;;;;;;;19.34;45.62;96140.28;4878892;29;20234;-86
2022/04/22 02:36:01;;;;;;;2.60;2.40;;;;;;;18.67;45.85;96027.97;4880840;29;20524;-86
2022/04/22 02:38:28;;;;;;;2.60;2.40;;;;;;;18.79;45.90;96040.88;4878398;29;20251;-86
2022/04/22 02:46:25;;;;;;;3.10;2.90;;;;;;;19.31;45.63;96118.19;4853407;29;20245;-86
2022/04/22 02:48:52;;;;;;;2.67;2.47;;;;;;;17.98;45.76;95893.69;4841424;29;20216;-86
2022/04/22 02:51:18;;;;;;;2.70;2.50;;;;;;;18.83;45.39;96035.88;4861489;29;20269;-86
2022/04/22 02:53:45;;;;;;;2.80;2.50;;;;;;;19.35;45.57;96119.94;4828622;29;20291;-86
2022/04/22 02:56:11;;;;;;;2.93;2.73;;;;;;;19.35;45.62;96122.47;4860185;29;20668;-86
2022/04/22 02:58:39;;;;;;;2.87;2.67;;;;;;;19.36;45.73;96121.63;4861379;29;20302;-86
2022/04/22 03:01:05;;;;;;;2.60;2.40;;;;;;;19.36;46.04;96118.25;4860135;29;20811;-87
2022/04/22 03:03:32;;;;;;;2.80;2.60;;;;;;;18.86;45.63;96019.81;4852482;29;20200;-86
2022/04/22 03:05:59;;;;;;;2.50;2.30;;;;;;;18.43;45.57;95954.66;4843592;29;20242;-86
2022/04/22 03:08:25;;;;;;;2.80;2.60;;;;;;;19.38;45.72;96107.25;4859848;29;20207;-86
2022/04/22 03:10:52;;;;;;;2.83;2.63;;;;;;;18.93;45.72;96029.25;4860557;29;20269;-86
2022/04/22 03:13:19;;;;;;;2.73;2.53;;;;;;;18.94;45.82;96025.84;4865404;29;20203;-86
2022/04/22 03:15:45;;;;;;;2.63;2.43;;;;;;;19.37;45.77;96100.44;4844501;29;20215;-86
2022/04/22 03:18:12;;;;;;;2.80;2.60;;;;;;;19.38;45.61;96098.72;4844123;29;20266;-86
2022/04/22 03:20:38;;;;;;;2.73;2.53;;;;;;;17.45;45.39;95802.97;4859726;29;20296;-86
2022/04/22 03:23:05;;;;;;;2.67;2.47;;;;;;;19.07;45.45;96048.16;4844271;29;20259;-86
2022/04/22 03:25:32;;;;;;;2.60;2.40;;;;;;;19.39;45.69;96103.00;4860303;29;20714;-86
2022/04/22 03:27:58;;;;;;;2.50;2.30;;;;;;;18.75;45.30;95991.66;4860162;29;20259;-86
2022/04/22 03:30:25;;;;;;;2.77;2.57;;;;;;;19.38;45.75;96093.63;4858263;29;20279;-86
2022/04/22 03:32:52;;;;;;;2.70;2.50;;;;;;;19.39;45.46;96100.47;4858887;29;20579;-86
2022/04/22 03:35:18;;;;;;;2.40;2.20;;;;;;;19.40;45.61;96097.94;4860486;29;20276;-86
2022/04/22 03:37:45;;;;;;;2.50;2.30;;;;;;;18.90;45.67;96003.75;4860689;29;20578;-86
2022/04/22 03:40:12;;;;;;;2.47;2.27;;;;;;;17.86;45.28;95841.78;4874516;29;20538;-86
2022/04/22 03:42:38;;;;;;;2.50;2.30;;;;;;;19.40;45.40;96090.31;4859193;29;20246;-86
2022/04/22 03:45:05;;;;;;;2.70;2.50;;;;;;;19.40;45.74;96087.75;4860250;29;20252;-86
2022/04/22 03:47:31;;;;;;;2.73;2.53;;;;;;;19.12;45.91;96041.41;4843799;29;20666;-86
2022/04/22 03:49:58;;;;;;;2.93;2.67;;;;;;;18.61;45.74;95964.25;4858950;29;20730;-85
2022/04/22 03:52:25;;;;;;;2.57;2.37;;;;;;;18.00;45.13;95842.91;4859107;29;20235;-85
2022/04/22 03:54:52;;;;;;;2.87;2.67;;;;;;;19.14;45.54;96032.13;4860015;29;20295;-86
2022/04/22 04:00:08;;;;;;;2.80;2.60;;;;;;;19.41;45.73;96078.41;4859592;29;20259;-86
2022/04/22 04:02:35;;;;;;;2.37;2.23;;;;;;;19.41;45.60;96079.25;4843517;29;20742;-86
2022/04/22 04:05:02;;;;;;;2.90;2.70;;;;;;;18.50;45.60;95917.47;4858644;29;20311;-86
2022/04/22 04:07:29;;;;;;;2.70;2.50;;;;;;;19.40;45.77;96066.50;4874126;29;20203;-86
2022/04/22 04:18:11;;;;;;;2.70;2.50;;;;;;;19.42;45.16;96069.94;4858915;29;20255;-86
2022/04/22 04:23:23;;;;;;;2.47;2.30;;;;;;;19.10;45.46;96017.63;4859092;29;20211;-86
2022/04/22 04:25:50;;;;;;;2.90;2.70;;;;;;;18.58;45.35;95924.38;4858895;29;20290;-87
2022/04/22 04:28:17;;;;;;;2.87;2.67;;;;;;;18.62;45.59;95927.81;4857353;29;20211;-86
2022/04/22 04:30:45;;;;;;;2.70;2.50;;;;;;;17.83;45.57;95794.31;4886044;29;20323;-86
2022/04/22 04:33:11;;;;;;;2.83;2.63;;;;;;;18.64;45.52;95946.50;4872571;29;20662;-86
2022/04/22 04:35:46;;;;;;;3.10;2.90;;;;;;;19.42;45.44;96064.84;4861733;29;20242;-86
2022/04/22 04:38:14;;;;;;;2.70;2.50;;;;;;;19.41;45.60;96069.06;4845693;29;20228;-86
2022/04/22 04:40:40;;;;;;;2.87;2.67;;;;;;;19.13;45.53;96015.13;4841646;29;20287;-86
2022/04/22 04:43:07;;;;;;;2.90;2.70;;;;;;;19.42;45.53;96064.84;4859211;29;20200;-86
2022/04/22 04:45:34;;;;;;;3.17;2.90;;;;;;;17.67;45.57;95764.41;4859497;29;20247;-86
2022/04/22 04:48:02;;;;;;;3.00;2.80;;;;;;;19.09;45.51;96001.50;4842703;29;20198;-86
2022/04/22 04:50:30;;;;;;;2.80;2.60;;;;;;;17.98;45.40;95809.84;4858055;29;20228;-86
2022/04/22 04:52:57;;;;;;;2.63;2.43;;;;;;;18.86;45.51;95958.72;4857932;29;20259;-86
2022/04/22 04:55:23;;;;;;;3.33;2.83;;;;;;;19.12;45.55;96004.09;4856545;29;20235;-86
2022/04/22 04:57:50;;;;;;;2.97;2.77;;;;;;;19.44;45.45;96058.06;4855342;29;20255;-86
2022/04/22 05:00:18;;;;;;;2.90;2.70;;;;;;;19.44;45.46;96058.06;4859057;29;20705;-86
2022/04/22 05:02:45;;;;;;;5.03;3.10;;;;;;;18.43;45.51;95880.03;4842286;29;20220;-86
2022/04/22 05:05:12;;;;;;;3.50;2.83;;;;;;;19.44;45.27;96058.06;4856927;29;20299;-85
2022/04/22 05:07:47;;;;;;;3.40;3.10;;;;;;;19.15;45.34;96008.34;4858276;29;20636;-86
2022/04/22 05:10:14;;;;;;;3.00;2.80;;;;;;;19.45;45.41;96057.25;4857846;29;20258;-86
2022/04/22 05:12:41;;;;;;;3.10;2.90;;;;;;;19.14;45.51;96004.97;4857187;29;20238;-86
2022/04/22 05:15:09;;;;;;;3.20;2.90;;;;;;;19.43;45.55;96054.69;4858998;29;20238;-86
2022/04/22 05:17:35;;;;;;;3.10;2.80;;;;;;;19.14;45.62;96004.09;4858769;29;20707;-85
2022/04/22 05:20:02;;;;;;;2.97;2.77;;;;;;;19.42;45.64;96054.66;4872165;29;20326;-86
2022/04/22 05:22:28;;;;;;;3.00;2.80;;;;;;;19.41;45.13;96061.44;4857741;29;20287;-86
2022/04/22 05:24:55;;;;;;;3.33;3.03;;;;;;;19.41;45.65;96063.13;4857407;29;20203;-86
2022/04/22 05:27:22;;;;;;;3.10;2.90;;;;;;;19.40;45.59;96061.41;4858031;29;20287;-86
2022/04/22 05:32:36;;;;;;;2.83;2.63;;;;;;;18.88;45.34;95980.81;4855915;29;20627;-86
2022/04/22 05:35:08;;;;;;;3.10;2.90;;;;;;;19.06;45.63;96015.84;4821646;29;20630;-86
2022/04/22 05:38:03;;;;;;;3.03;2.83;;;;;;;18.81;45.69;95966.28;4856857;29;20262;-88
2022/04/22 05:40:37;;;;;;;3.17;2.80;;;;;;;18.88;45.67;95998.63;4864011;29;20232;-86
2022/04/22 05:43:07;;;;;;;3.40;3.13;;;;;;;18.84;45.27;95984.16;4854315;29;20220;-88
2022/04/22 05:45:34;;;;;;;4.90;3.93;;;;;;;17.74;45.46;95799.22;4871863;29;20554;-88
2022/04/22 05:48:01;;;;;;;5.23;4.73;;;;;;;17.80;45.13;95809.50;4842328;29;20211;-87
2022/04/22 05:50:28;;;;;;;6.10;5.50;;;;;;;18.81;44.89;95984.09;4873204;29;20238;-87
2022/04/22 05:52:54;;;;;;;6.63;5.90;;;;;;;18.63;45.18;95962.59;4857203;29;20234;-87
2022/04/22 05:55:23;;;;;;;7.50;6.70;;;;;;;18.29;45.08;95891.66;4888423;29;20242;-87
2022/04/22 05:57:50;;;;;;;7.40;6.70;;;;;;;19.02;45.14;96014.13;4888870;29;20274;-85
2022/04/22 06:00:18;;;;;;;6.67;5.93;;;;;;;19.32;45.31;96068.94;4872286;29;20598;-85
2022/04/22 06:02:45;;;;;;;7.00;6.30;;;;;;;19.32;45.42;96068.94;4871823;29;20268;-84
2022/04/22 06:05:13;;;;;;;6.40;5.73;;;;;;;17.81;45.41;95818.00;4873413;29;20260;-85
2022/04/22 06:07:40;;;;;;;7.97;6.40;;;;;;;18.82;45.36;95983.25;4855875;29;20227;-86
2022/04/22 06:12:53;;;;;;;10.73;7.67;;;;;;;18.66;45.05;95955.00;4869007;29;20247;-86
2022/04/22 06:15:20;;;;;;;10.53;8.30;;;;;;;18.95;44.96;96002.13;4870670;29;20259;-82
2022/04/22 06:17:46;;;;;;;9.27;8.10;;;;;;;18.64;45.17;95951.59;4860270;29;20306;-85
2022/04/22 06:20:13;;;;;;;10.03;8.47;;;;;;;18.99;45.10;96016.63;4853551;29;20741;-85
2022/04/22 06:22:40;;;;;;;11.70;8.20;;;;;;;19.27;45.01;96070.56;4840366;29;20281;-85
2022/04/22 06:25:08;;;;;;;11.50;8.50;;;;;;;18.78;45.34;95984.06;4857089;29;20235;-83
2022/04/22 06:27:39;;;;;;;11.13;7.70;;;;;;;18.99;45.30;96019.16;4872387;29;20268;-85
2022/04/22 06:30:17;;;;;;;9.53;7.30;;;;;;;19.25;45.35;96072.22;4841103;29;20586;-86
2022/04/22 06:32:45;;;;;;;7.83;7.13;;;;;;;19.00;45.41;96026.81;4827080;29;20610;-85
2022/04/22 06:35:12;;;;;;;10.93;7.10;;;;;;;18.67;45.51;95969.44;4841697;29;20239;-86
2022/04/22 06:37:44;;;;;;;6.87;6.27;;;;;;;18.98;45.43;96020.00;4857389;29;20266;-86
2022/04/22 06:45:46;;;;;;;8.93;7.07;;;;;;;19.25;45.65;96064.56;4857709;29;20246;-86
2022/04/22 06:48:30;;;;;;;8.43;7.37;;;;;;;19.25;45.65;96064.56;4856009;29;20224;-85
2022/04/22 06:51:12;;;;;;;7.77;6.97;;;;;;;18.11;45.59;95875.28;4857324;29;20223;-85
2022/04/22 06:53:39;;;;;;;7.83;6.73;;;;;;;18.01;45.61;95844.59;4859939;29;20212;-86
2022/04/22 06:56:06;;;;;;;7.50;6.80;;;;;;;18.70;45.70;95970.34;4859843;29;20200;-85
2022/04/22 06:58:37;;;;;;;6.97;6.30;;;;;;;19.24;45.80;96059.41;4874627;29;20234;-85
2022/04/22 07:01:05;;;;;;;7.03;6.33;;;;;;;18.68;45.57;95961.00;4860906;29;20228;-85
2022/04/22 07:03:51;;;;;;;7.33;6.10;;;;;;;18.70;45.96;95955.09;4864837;29;20501;-85
2022/04/22 07:06:18;;;;;;;6.27;5.67;;;;;;;18.90;45.70;95991.88;4867922;29;20240;-85
2022/04/22 07:08:46;;;;;;;7.10;6.40;;;;;;;19.22;45.64;96040.75;4828388;29;20231;-86
2022/04/22 07:11:17;;;;;;;7.23;6.53;;;;;;;19.21;45.60;96044.97;4855347;29;20302;-85
2022/04/22 07:13:44;;;;;;;6.97;6.10;;;;;;;18.87;45.60;95981.66;4861071;29;20235;-85
2022/04/22 07:16:10;;;;;;;6.93;6.33;;;;;;;18.41;45.89;95902.88;4858473;29;20290;-85
2022/04/22 07:18:37;;;;;;;10.27;6.53;;;;;;;19.22;45.54;96048.38;4859541;29;20234;-85
2022/04/22 07:21:04;;;;;;;8.77;7.30;;;;;;;19.23;45.35;96044.97;4844161;29;20726;-85
2022/04/22 07:23:31;;;;;;;8.53;7.67;;;;;;;19.23;45.13;96050.06;4861170;29;20255;-85
2022/04/22 07:25:57;;;;;;;9.10;8.20;;;;;;;19.22;44.71;96045.84;4873880;29;20306;-85
2022/04/22 07:28:24;;;;;;;8.77;7.87;;;;;;;18.98;44.52;95994.53;4862307;29;20258;-86
2022/04/22 07:30:50;;;;;;;9.70;7.87;;;;;;;18.90;45.53;95991.88;4873748;29;20318;-86
2022/04/22 07:33:17;;;;;;;7.37;6.67;;;;;;;18.89;45.66;95990.16;4869634;29;20740;-86
2022/04/22 07:35:44;;;;;;;7.03;6.33;;;;;;;19.22;45.59;96038.19;4844419;29;20228;-86
2022/04/22 07:38:11;;;;;;;9.07;7.20;;;;;;;18.77;45.69;95974.69;4860070;29;20251;-85
2022/04/22 07:40:40;;;;;;;7.00;6.30;;;;;;;18.41;45.60;95907.97;4859896;29;20228;-86
2022/04/22 07:48:37;;;;;;;7.93;6.30;;;;;;;17.19;45.66;95684.84;4859469;29;20200;-86
2022/04/22 07:51:03;;;;;;;6.77;6.07;;;;;;;17.75;45.75;95785.72;4852455;29;20772;-87
2022/04/22 07:53:30;;;;;;;6.80;6.10;;;;;;;18.95;45.81;95991.94;4850585;29;20654;-87
2022/04/22 07:55:56;;;;;;;6.23;5.67;;;;;;;18.42;45.80;95889.38;4843350;29;20260;-85
2022/04/22 07:58:23;;;;;;;8.77;5.83;;;;;;;19.23;45.96;96027.16;4860282;29;20666;-85
2022/04/22 08:00:51;;;;;;;6.47;5.77;;;;;;;19.23;45.84;96025.47;4859132;29;20228;-86
2022/04/22 08:03:17;;;;;;;10.93;6.27;;;;;;;18.06;45.89;95820.13;4859814;29;20255;-87
2022/04/22 08:05:44;;;;;;;7.03;5.40;;;;;;;18.66;45.64;95914.31;4874692;29;20294;-86
2022/04/22 08:08:10;;;;;;;7.70;5.20;;;;;;;18.62;45.82;95907.47;4847842;29;20232;-88
2022/04/22 08:10:38;;;;;;;7.13;5.30;;;;;;;18.77;45.87;95936.53;4831006;29;20228;-87
2022/04/22 08:13:07;;;;;;;8.17;5.40;;;;;;;18.88;46.04;95951.94;4858917;29;20268;-86
2022/04/22 08:15:34;;;;;;;8.20;5.33;;;;;;;18.92;45.78;95971.53;4873223;29;20710;-86
2022/04/22 08:18:01;;;;;;;6.37;5.57;;;;;;;19.24;45.91;96011.91;4858760;29;20219;-87
2022/04/22 08:20:30;;;;;;;8.93;5.23;;;;;;;18.38;45.79;95866.41;4842792;29;20263;-88
2022/04/22 08:23:00;;;;;;;7.37;5.20;;;;;;;18.77;45.93;95925.50;4843292;29;20233;-87
2022/04/22 08:25:27;;;;;;;9.13;5.73;;;;;;;18.46;46.02;95870.78;4873551;29;20243;-87
2022/04/22 08:27:53;;;;;;;6.70;5.33;;;;;;;18.97;45.92;95944.44;4858603;29;20294;-87
2022/04/22 08:30:21;;;;;;;7.57;5.40;;;;;;;19.27;45.99;96019.63;4904608;23;20249;-95
2022/04/22 08:32:48;;;;;;;6.40;5.20;;;;;;;18.62;45.80;95900.69;4888413;29;20186;-95
2022/04/22 08:35:15;;;;;;;8.57;5.10;;;;;;;17.44;45.83;95707.31;4878573;29;20186;-95
2022/04/22 08:37:44;;;;;;;6.07;4.80;;;;;;;18.90;45.90;95943.53;4917642;23;20213;-91
2022/04/22 08:40:12;;;;;;;9.37;5.20;;;;;;;18.01;45.77;95814.09;4910087;28;20225;-94
2022/04/22 08:42:40;;;;;;;5.30;4.80;;;;;;;16.69;45.71;95566.44;4912781;28;20220;-94
2022/04/22 08:45:11;;;;;;;7.43;5.03;;;;;;;16.79;46.26;95597.91;4899790;29;20182;-94
2022/04/22 08:50:27;;;;;;;7.53;5.47;;;;;;;18.88;46.48;95952.81;4909671;29;20216;-94
2022/04/22 08:53:03;;;;;;;7.57;6.50;;;;;;;16.96;45.89;95589.72;4897625;29;20202;-93
2022/04/22 08:55:32;;;;;;;11.27;8.80;;;;;;;17.27;44.64;95637.63;4906173;29;20190;-95
2022/04/22 08:58:05;;;;;;;10.80;9.77;;;;;;;16.84;44.04;95596.31;4893918;29;20194;-95
2022/04/22 09:00:35;;;;;;;12.40;9.37;;;;;;;17.11;43.54;95617.06;4910136;29;20198;-94
2022/04/22 09:03:02;;;;;;;11.63;9.83;;;;;;;18.53;43.99;95876.81;4892924;29;20211;-94
2022/04/22 09:05:34;;;;;;;10.77;9.70;;;;;;;17.31;43.45;95687.59;4925245;29;20261;-94
2022/04/22 09:08:01;;;;;;;10.43;8.83;;;;;;;17.08;43.18;95617.84;4895142;29;20197;-91
2022/04/22 09:10:27;;;;;;;10.17;9.13;;;;;;;17.37;42.82;95669.94;4924857;29;20205;-93
2022/04/22 09:13:09;;;;;;;9.07;8.20;;;;;;;19.20;42.65;95989.78;4939281;23;20226;-93
2022/04/22 09:15:38;;;;;;;11.30;8.60;;;;;;;16.84;42.96;95568.41;4933355;29;20190;-94
2022/04/22 09:18:27;;;;;;;10.60;9.50;;;;;;;15.63;43.01;95420.91;4891256;29;20242;-94
2022/04/22 09:21:02;;;;;;;19.63;10.13;;;;;;;18.15;43.43;95797.38;4886179;29;20202;-94
2022/04/22 09:23:33;;;;;;;10.53;9.30;;;;;;;17.29;43.43;95653.72;4891907;29;20215;-95
2022/04/22 09:26:02;;;;;;;12.10;9.47;;;;;;;16.45;43.41;95528.00;4907773;29;20219;-94
2022/04/22 09:28:35;;;;;;;10.93;9.13;;;;;;;17.56;43.66;95699.06;4940001;23;20316;-91
2022/04/22 09:31:03;;;;;;;11.47;8.80;;;;;;;17.53;43.43;95696.47;4893149;29;20241;-92
2022/04/22 09:33:35;;;;;;;9.27;8.33;;;;;;;17.70;43.86;95750.91;4879923;29;20712;-92
2022/04/22 09:44:32;;;;;;;8.77;7.87;;;;;;;17.57;45.16;95701.63;4871540;29;20221;-94
2022/04/22 09:47:11;;;;;;;7.93;7.23;;;;;;;19.05;45.11;95960.69;4905557;29;20233;-94
2022/04/22 09:49:43;;;;;;;8.10;7.33;;;;;;;16.27;44.96;95477.81;4887662;29;20220;-92
2022/04/22 09:52:10;;;;;;;7.67;6.97;;;;;;;17.57;45.12;95726.16;4897936;29;20197;-92
2022/04/22 09:54:38;;;;;;;9.40;6.70;;;;;;;18.17;45.28;95788.06;4917325;29;20216;-92
2022/04/22 09:57:24;;;;;;;7.10;6.50;;;;;;;17.66;45.00;95708.50;4918667;29;20257;-93
2022/04/22 09:59:52;;;;;;;7.33;6.67;;;;;;;16.89;45.26;95595.53;4915958;29;20289;-93
2022/04/22 10:02:24;;;;;;;7.57;6.77;;;;;;;15.95;45.45;95429.94;4899851;29;20202;-93
2022/04/22 10:04:54;;;;;;;9.10;6.97;;;;;;;16.46;45.38;95517.00;4916910;29;20202;-93
2022/04/22 10:07:27;;;;;;;9.03;7.53;;;;;;;17.44;45.08;95653.16;4950588;29;20237;-93
2022/04/22 10:09:54;;;;;;;7.40;6.70;;;;;;;17.92;45.29;95770.75;4919127;29;20284;-93
2022/04/22 10:12:22;;;;;;;7.53;6.80;;;;;;;18.15;45.46;95792.28;4918282;29;20218;-93
2022/04/22 10:14:50;;;;;;;7.03;6.33;;;;;;;18.48;45.49;95858.06;4917060;29;20239;-94
2022/04/22 10:17:17;;;;;;;6.70;5.93;;;;;;;18.39;45.20;95820.66;4919746;29;20194;-94
2022/04/22 10:19:44;;;;;;;7.53;6.80;;;;;;;17.30;45.35;95657.13;4919470;29;20233;-94
2022/04/22 10:22:11;;;;;;;7.00;6.30;;;;;;;16.26;45.51;95480.31;4913261;29;20237;-94
2022/04/22 10:24:38;;;;;;;7.17;6.17;;;;;;;16.65;45.31;95552.00;4908007;29;20244;-94
2022/04/22 10:27:07;;;;;;;7.60;6.00;;;;;;;17.34;45.46;95636.00;4890279;29;20194;-94
2022/04/22 10:29:57;;;;;;;7.17;6.47;;;;;;;16.70;45.22;95514.91;4912067;29;20777;-93
2022/04/22 10:32:27;;;;;;;6.40;5.90;;;;;;;15.95;45.18;95419.81;4899706;29;20208;-92
2022/04/22 10:34:59;;;;;;;6.40;5.90;;;;;;;18.22;45.17;95786.47;4878864;29;20226;-92
2022/04/22 10:37:27;;;;;;;7.80;5.67;;;;;;;15.52;45.67;95337.19;4880966;29;20201;-91
2022/04/22 10:39:59;;;;;;;6.80;6.10;;;;;;;16.18;45.37;95465.00;4893167;29;20610;-93
2022/04/22 10:42:44;;;;;;;6.23;5.63;;;;;;;18.51;45.47;95827.59;4877494;29;20260;-92
2022/04/22 10:47:57;;;;;;;6.57;5.50;;;;;;;18.95;45.43;95911.34;4946239;29;20177;-94
2022/04/22 10:50:26;;;;;;;5.93;5.43;;;;;;;18.38;45.43;95808.75;4921384;29;20220;-92
2022/04/22 10:53:04;;;;;;;5.73;5.23;;;;;;;17.38;45.50;95633.53;4921883;29;20190;-92
2022/04/22 10:55:34;;;;;;;5.27;4.77;;;;;;;19.16;45.74;95931.16;4900782;29;20186;-94
2022/04/22 11:00:58;;;;;;;16.03;5.80;;;;;;;16.15;45.29;95423.53;3211451;23;20240;-92
2022/04/22 11:03:31;;;;;;;10.60;5.77;;;;;;;16.87;45.80;95538.84;4911690;29;20193;-93
2022/04/22 11:05:59;;;;;;;7.07;5.63;;;;;;;16.06;45.52;95405.66;4924242;29;20197;-93
2022/04/22 11:08:30;;;;;;;6.27;5.67;;;;;;;16.40;45.36;95468.72;4893602;29;20209;-93
2022/04/22 11:10:59;;;;;;;6.33;5.63;;;;;;;17.71;45.73;95681.50;4912526;29;20643;-92
2022/04/22 11:13:39;;;;;;;6.87;5.50;;;;;;;19.19;45.54;95931.19;4901926;29;20553;-92
2022/04/22 11:16:06;;;;;;;6.10;5.03;;;;;;;19.19;45.14;95928.66;4920606;29;20257;-92
2022/04/22 11:18:39;;;;;;;7.03;4.90;;;;;;;18.42;45.37;95800.34;4903678;29;20253;-92
2022/04/22 11:21:19;;;;;;;8.87;5.10;;;;;;;19.19;45.46;95932.03;4891994;29;20278;-93
2022/04/22 11:23:51;;;;;;;5.73;5.03;;;;;;;18.09;45.67;95738.81;4916725;29;20201;-93
2022/04/22 11:26:18;;;;;;;5.67;4.67;;;;;;;16.29;45.66;95455.03;4906499;29;20186;-92
2022/04/22 11:28:45;;;;;;;8.33;5.60;;;;;;;18.44;45.34;95800.38;4900174;29;20676;-92
2022/04/22 11:31:13;;;;;;;8.73;5.20;;;;;;;16.26;45.46;95452.44;4889494;29;20603;-92
2022/04/22 11:33:40;;;;;;;7.90;5.83;;;;;;;19.18;45.50;95935.41;4916129;29;20206;-93
2022/04/22 11:36:07;;;;;;;7.60;5.10;;;;;;;17.71;45.66;95696.75;4934743;29;20197;-93
2022/04/22 11:38:34;;;;;;;7.47;5.30;;;;;;;17.73;45.55;95685.75;4897979;29;20249;-93
2022/04/22 11:41:11;;;;;;;8.57;5.53;;;;;;;17.47;45.64;95681.13;4906828;29;20252;-92
2022/04/22 11:43:43;;;;;;;8.40;5.57;;;;;;;19.19;45.71;95936.28;4929463;29;20186;-93
2022/04/22 11:46:34;;;;;;;8.40;5.37;;;;;;;16.98;45.46;95550.03;4935482;29;20181;-93
2022/04/22 11:49:05;;;;;;;9.00;5.00;;;;;;;18.99;45.59;95889.34;4892061;29;20210;-92
2022/04/22 11:51:54;;;;;;;9.37;4.83;;;;;;;16.00;45.44;95408.09;4902175;29;20253;-92
2022/04/22 11:54:26;;;;;;;8.13;5.60;;;;;;;16.24;45.64;95471.84;4900898;29;20209;-93
2022/04/22 11:56:57;;;;;;;10.23;6.10;;;;;;;15.49;45.48;95321.97;4886097;29;20221;-93
2022/04/22 11:59:26;;;;;;;8.40;5.77;;;;;;;16.50;45.42;95459.63;4903812;29;20899;-93
2022/04/22 12:08:02;;;;;;;9.27;5.57;;;;;;;19.18;45.76;95920.16;4915679;29;20214;-92
2022/04/22 12:10:28;;;;;;;7.17;5.20;;;;;;;19.00;45.82;95889.34;4912800;29;20269;-93
2022/04/22 12:12:57;;;;;;;6.77;5.23;;;;;;;19.19;45.66;95931.19;4884189;29;20648;-93
2022/04/22 12:15:24;;;;;;;6.17;4.53;;;;;;;18.20;45.85;95762.69;4880087;29;20202;-93
2022/04/22 12:17:50;;;;;;;5.97;4.73;;;;;;;18.68;45.68;95844.78;4915440;29;20198;-94
2022/04/22 12:20:17;;;;;;;5.43;4.53;;;;;;;18.45;45.49;95797.00;4912851;29;20878;-92
2022/04/22 12:22:44;;;;;;;5.20;4.70;;;;;;;19.18;45.66;95917.59;4896104;29;20232;-94
2022/04/22 12:25:16;;;;;;;4.93;4.27;;;;;;;17.26;45.79;95602.06;4908967;29;20241;-92
2022/04/22 12:27:43;;;;;;;7.03;5.13;;;;;;;18.95;45.86;95897.78;4912363;29;20200;-92
2022/04/22 12:30:11;;;;;;;6.87;4.93;;;;;;;18.58;45.49;95820.06;4888164;29;20489;-93
2022/04/22 12:32:38;;;;;;;6.03;5.10;;;;;;;18.90;45.75;95872.25;4912331;29;20212;-92
2022/04/22 12:35:17;;;;;;;7.13;4.73;;;;;;;17.83;45.65;95679.97;4916435;29;20235;-93
2022/04/22 12:37:52;;;;;;;7.70;5.03;;;;;;;19.15;45.91;95917.56;4911603;29;20218;-93
2022/04/22 12:40:19;;;;;;;9.43;5.47;;;;;;;17.58;45.51;95657.59;4894319;29;20241;-93
2022/04/22 12:42:46;;;;;;;6.60;4.40;;;;;;;18.46;45.67;95793.59;4915870;29;20960;-93
2022/04/22 12:53:42;;;;;;;7.47;5.00;;;;;;;17.64;45.81;95649.19;4922986;29;20260;-93